sensor_id;sensor_type;location;lat;lon;timestamp;pressure;altitude;pressure_sealevel;temperature;humidity
6096;BME280;25081;42.698;23.298;2022-07-29T00:01:01;95381.61;;;20.10;71.23
6096;BME280;25081;42.698;23.298;2022-07-29T00:03:12;95391.09;;;20.03;71.15
6096;BME280;25081;42.698;23.298;2022-07-29T00:05:23;95395.70;;;19.97;71.24
6096;BME280;25081;42.698;23.298;2022-07-29T00:07:34;95399.69;;;20.30;70.41
6096;BME280;25081;42.698;23.298;2022-07-29T00:09:44;95403.45;;;20.34;69.95
6096;BME280;25081;42.698;23.298;2022-07-29T00:11:56;95404.70;;;20.70;69.25
6096;BME280;25081;42.698;23.298;2022-07-29T00:14:06;95402.69;;;20.91;67.90
6096;BME280;25081;42.698;23.298;2022-07-29T00:16:17;95404.84;;;20.91;67.68
6096;BME280;25081;42.698;23.298;2022-07-29T00:18:28;95401.42;;;20.73;68.68
6096;BME280;25081;42.698;23.298;2022-07-29T00:20:38;95405.19;;;20.79;68.71
6096;BME280;25081;42.698;23.298;2022-07-29T00:22:49;95402.55;;;20.67;69.45
6096;BME280;25081;42.698;23.298;2022-07-29T00:25:00;95397.98;;;20.54;69.63
6096;BME280;25081;42.698;23.298;2022-07-29T00:27:10;95399.91;;;20.36;70.45
6096;BME280;25081;42.698;23.298;2022-07-29T00:29:21;95397.20;;;20.36;70.98
6096;BME280;25081;42.698;23.298;2022-07-29T00:31:32;95394.67;;;20.70;69.79
6096;BME280;25081;42.698;23.298;2022-07-29T00:33:42;95397.25;;;20.96;68.72
6096;BME280;25081;42.698;23.298;2022-07-29T00:35:53;95400.29;;;21.33;67.47
6096;BME280;25081;42.698;23.298;2022-07-29T00:38:04;95396.77;;;21.30;67.43
6096;BME280;25081;42.698;23.298;2022-07-29T00:40:14;95404.31;;;20.94;68.80
6096;BME280;25081;42.698;23.298;2022-07-29T00:42:25;95414.19;;;20.65;70.26
6096;BME280;25081;42.698;23.298;2022-07-29T00:44:38;95413.72;;;20.42;71.12
6096;BME280;25081;42.698;23.298;2022-07-29T00:46:49;95414.00;;;20.41;71.35
6096;BME280;25081;42.698;23.298;2022-07-29T00:49:00;95410.25;;;20.24;71.73
6096;BME280;25081;42.698;23.298;2022-07-29T00:51:10;95414.89;;;20.18;72.06
6096;BME280;25081;42.698;23.298;2022-07-29T00:53:21;95420.62;;;19.99;72.83
6096;BME280;25081;42.698;23.298;2022-07-29T00:55:32;95419.81;;;19.83;73.09
6096;BME280;25081;42.698;23.298;2022-07-29T00:57:43;95425.78;;;19.80;73.23
6096;BME280;25081;42.698;23.298;2022-07-29T00:59:53;95423.86;;;19.86;72.94
6096;BME280;25081;42.698;23.298;2022-07-29T01:02:04;95415.23;;;19.71;73.24
6096;BME280;25081;42.698;23.298;2022-07-29T01:04:15;95410.33;;;19.93;72.72
6096;BME280;25081;42.698;23.298;2022-07-29T01:06:25;95405.19;;;19.87;72.67
6096;BME280;25081;42.698;23.298;2022-07-29T01:08:36;95410.06;;;19.47;74.06
6096;BME280;25081;42.698;23.298;2022-07-29T01:10:47;95412.22;;;19.27;74.98
6096;BME280;25081;42.698;23.298;2022-07-29T01:12:58;95397.61;;;19.18;75.91
6096;BME280;25081;42.698;23.298;2022-07-29T01:15:09;95398.42;;;19.18;75.42
6096;BME280;25081;42.698;23.298;2022-07-29T01:17:21;95395.75;;;19.31;75.36
6096;BME280;25081;42.698;23.298;2022-07-29T01:19:47;95396.80;;;19.27;74.84
6096;BME280;25081;42.698;23.298;2022-07-29T01:21:53;95390.34;;;19.31;74.92
6096;BME280;25081;42.698;23.298;2022-07-29T01:24:28;95397.33;;;19.19;75.12
6096;BME280;25081;42.698;23.298;2022-07-29T01:26:44;95393.02;;;19.18;75.72
6096;BME280;25081;42.698;23.298;2022-07-29T01:31:43;95379.77;;;19.01;75.95
6096;BME280;25081;42.698;23.298;2022-07-29T01:33:55;95378.38;;;18.86;76.45
6096;BME280;25081;42.698;23.298;2022-07-29T01:36:07;95380.52;;;18.81;77.02
6096;BME280;25081;42.698;23.298;2022-07-29T01:38:17;95368.38;;;18.89;76.65
6096;BME280;25081;42.698;23.298;2022-07-29T01:40:27;95372.45;;;18.99;76.28
6096;BME280;25081;42.698;23.298;2022-07-29T01:42:38;95374.88;;;18.96;76.50
6096;BME280;25081;42.698;23.298;2022-07-29T01:44:50;95378.41;;;19.04;76.38
6096;BME280;25081;42.698;23.298;2022-07-29T01:47:00;95376.25;;;19.03;76.52
6096;BME280;25081;42.698;23.298;2022-07-29T01:49:11;95382.47;;;19.16;76.33
6096;BME280;25081;42.698;23.298;2022-07-29T01:53:33;95378.66;;;19.00;76.75
6096;BME280;25081;42.698;23.298;2022-07-29T01:55:44;95376.73;;;18.77;77.40
6096;BME280;25081;42.698;23.298;2022-07-29T01:57:54;95376.73;;;18.77;77.51
6096;BME280;25081;42.698;23.298;2022-07-29T02:00:06;95369.64;;;18.58;78.29
6096;BME280;25081;42.698;23.298;2022-07-29T02:02:17;95367.72;;;18.51;78.75
6096;BME280;25081;42.698;23.298;2022-07-29T02:04:28;95364.59;;;18.75;78.68
6096;BME280;25081;42.698;23.298;2022-07-29T02:06:39;95365.44;;;19.06;77.47
6096;BME280;25081;42.698;23.298;2022-07-29T02:08:49;95367.07;;;19.25;76.19
6096;BME280;25081;42.698;23.298;2022-07-29T02:13:19;95363.02;;;19.32;75.81
6096;BME280;25081;42.698;23.298;2022-07-29T02:15:30;95361.92;;;19.28;75.82
6096;BME280;25081;42.698;23.298;2022-07-29T02:17:42;95363.00;;;19.20;76.20
6096;BME280;25081;42.698;23.298;2022-07-29T02:19:52;95364.38;;;19.25;76.19
6096;BME280;25081;42.698;23.298;2022-07-29T02:22:03;95367.87;;;19.15;76.56
6096;BME280;25081;42.698;23.298;2022-07-29T02:24:14;95356.53;;;19.13;76.67
6096;BME280;25081;42.698;23.298;2022-07-29T02:26:24;95358.69;;;19.16;76.87
6096;BME280;25081;42.698;23.298;2022-07-29T02:28:35;95350.59;;;19.11;77.51
6096;BME280;25081;42.698;23.298;2022-07-29T02:30:46;95358.14;;;19.06;77.52
6096;BME280;25081;42.698;23.298;2022-07-29T02:32:56;95358.42;;;19.12;77.17
6096;BME280;25081;42.698;23.298;2022-07-29T02:35:09;95351.37;;;18.99;77.81
6096;BME280;25081;42.698;23.298;2022-07-29T02:37:19;95345.69;;;18.85;78.42
6096;BME280;25081;42.698;23.298;2022-07-29T02:39:30;95342.14;;;18.72;78.54
6096;BME280;25081;42.698;23.298;2022-07-29T02:41:43;95338.13;;;19.10;78.09
6096;BME280;25081;42.698;23.298;2022-07-29T02:43:55;95338.13;;;19.10;78.09
6096;BME280;25081;42.698;23.298;2022-07-29T02:46:05;95337.59;;;19.38;76.12
6096;BME280;25081;42.698;23.298;2022-07-29T02:48:15;95339.75;;;19.39;76.18
6096;BME280;25081;42.698;23.298;2022-07-29T02:50:27;95342.19;;;19.45;75.87
6096;BME280;25081;42.698;23.298;2022-07-29T02:52:39;95345.70;;;19.71;74.56
6096;BME280;25081;42.698;23.298;2022-07-29T02:54:51;95346.53;;;19.62;74.18
6096;BME280;25081;42.698;23.298;2022-07-29T02:57:01;95344.63;;;19.52;75.28
6096;BME280;25081;42.698;23.298;2022-07-29T02:59:11;95344.05;;;19.78;74.29
6096;BME280;25081;42.698;23.298;2022-07-29T03:01:23;95338.09;;;19.89;73.81
6096;BME280;25081;42.698;23.298;2022-07-29T03:03:34;95337.80;;;19.93;73.81
6096;BME280;25081;42.698;23.298;2022-07-29T03:05:43;95334.58;;;19.88;74.25
6096;BME280;25081;42.698;23.298;2022-07-29T03:07:55;95337.17;;;20.16;73.39
6096;BME280;25081;42.698;23.298;2022-07-29T03:10:07;95335.45;;;20.41;72.38
6096;BME280;25081;42.698;23.298;2022-07-29T03:12:17;95335.21;;;20.37;72.46
6096;BME280;25081;42.698;23.298;2022-07-29T03:14:28;95341.17;;;20.37;72.51
6096;BME280;25081;42.698;23.298;2022-07-29T03:16:39;95329.23;;;20.43;72.50
6096;BME280;25081;42.698;23.298;2022-07-29T03:18:50;95332.05;;;20.12;73.71
6096;BME280;25081;42.698;23.298;2022-07-29T03:21:01;95339.04;;;20.28;73.15
6096;BME280;25081;42.698;23.298;2022-07-29T03:23:11;95340.88;;;20.48;72.31
6096;BME280;25081;42.698;23.298;2022-07-29T03:25:22;95344.92;;;20.46;72.38
6096;BME280;25081;42.698;23.298;2022-07-29T03:27:33;95310.55;;;20.39;71.89
6096;BME280;25081;42.698;23.298;2022-07-29T03:29:43;95342.28;;;20.25;72.93
6096;BME280;25081;42.698;23.298;2022-07-29T03:31:54;95341.61;;;19.89;74.79
6096;BME280;25081;42.698;23.298;2022-07-29T03:34:05;95347.31;;;19.55;75.98
6096;BME280;25081;42.698;23.298;2022-07-29T03:36:15;95355.18;;;19.33;77.12
6096;BME280;25081;42.698;23.298;2022-07-29T03:38:26;95356.24;;;19.20;77.80
6096;BME280;25081;42.698;23.298;2022-07-29T03:40:38;95354.64;;;19.13;78.00
6096;BME280;25081;42.698;23.298;2022-07-29T03:42:48;95355.18;;;19.13;77.90
6096;BME280;25081;42.698;23.298;2022-07-29T03:44:59;95361.38;;;18.96;78.87
6096;BME280;25081;42.698;23.298;2022-07-29T03:47:10;95354.11;;;19.11;78.76
6096;BME280;25081;42.698;23.298;2022-07-29T03:49:21;95361.94;;;19.23;78.01
6096;BME280;25081;42.698;23.298;2022-07-29T03:51:31;95357.88;;;19.28;77.43
6096;BME280;25081;42.698;23.298;2022-07-29T03:53:42;95363.55;;;19.29;78.02
6096;BME280;25081;42.698;23.298;2022-07-29T03:55:54;95364.09;;;19.16;78.03
6096;BME280;25081;42.698;23.298;2022-07-29T03:58:03;95366.25;;;19.16;77.94
6096;BME280;25081;42.698;23.298;2022-07-29T04:00:14;95363.56;;;19.11;78.37
6096;BME280;25081;42.698;23.298;2022-07-29T04:02:25;95363.55;;;19.06;78.92
6096;BME280;25081;42.698;23.298;2022-07-29T04:04:36;95372.48;;;19.25;78.46
6096;BME280;25081;42.698;23.298;2022-07-29T04:06:47;95379.77;;;19.37;77.66
6096;BME280;25081;42.698;23.298;2022-07-29T04:08:57;95377.60;;;19.39;77.56
6096;BME280;25081;42.698;23.298;2022-07-29T04:11:08;95371.14;;;19.63;77.15
6096;BME280;25081;42.698;23.298;2022-07-29T04:13:18;95370.30;;;19.47;77.18
6096;BME280;25081;42.698;23.298;2022-07-29T04:15:29;95373.83;;;19.53;76.60
6096;BME280;25081;42.698;23.298;2022-07-29T04:17:40;95369.52;;;19.41;76.99
6096;BME280;25081;42.698;23.298;2022-07-29T04:19:51;95364.08;;;19.49;77.01
6096;BME280;25081;42.698;23.298;2022-07-29T04:22:01;95352.75;;;19.70;76.38
6096;BME280;25081;42.698;23.298;2022-07-29T04:24:12;95360.84;;;19.55;76.64
6096;BME280;25081;42.698;23.298;2022-07-29T04:26:23;95360.60;;;19.61;76.61
6096;BME280;25081;42.698;23.298;2022-07-29T04:28:33;95360.59;;;19.56;76.55
6096;BME280;25081;42.698;23.298;2022-07-29T04:30:44;95356.00;;;19.69;76.20
6096;BME280;25081;42.698;23.298;2022-07-29T04:32:55;95365.42;;;19.85;75.97
6096;BME280;25081;42.698;23.298;2022-07-29T04:35:07;95364.88;;;19.90;74.89
6096;BME280;25081;42.698;23.298;2022-07-29T04:37:18;95370.53;;;19.96;75.01
6096;BME280;25081;42.698;23.298;2022-07-29T04:39:29;95379.70;;;20.11;74.65
6096;BME280;25081;42.698;23.298;2022-07-29T04:41:39;95235.95;;;19.27;74.16
6096;BME280;25081;42.698;23.298;2022-07-29T04:43:50;95373.72;;;20.16;74.22
6096;BME280;25081;42.698;23.298;2022-07-29T04:46:00;95376.36;;;20.39;73.71
6096;BME280;25081;42.698;23.298;2022-07-29T04:48:11;95379.88;;;20.47;72.63
6096;BME280;25081;42.698;23.298;2022-07-29T04:50:22;95376.84;;;21.03;70.96
6096;BME280;25081;42.698;23.298;2022-07-29T04:52:33;95373.86;;;21.47;68.83
6096;BME280;25081;42.698;23.298;2022-07-29T04:54:44;95378.88;;;21.92;68.09
6096;BME280;25081;42.698;23.298;2022-07-29T04:56:54;95375.69;;;22.81;64.45
6096;BME280;25081;42.698;23.298;2022-07-29T04:59:05;95381.18;;;23.16;62.73
6096;BME280;25081;42.698;23.298;2022-07-29T05:01:16;95380.94;;;23.85;60.31
6096;BME280;25081;42.698;23.298;2022-07-29T05:03:26;95380.55;;;23.59;59.92
6096;BME280;25081;42.698;23.298;2022-07-29T05:05:37;95379.07;;;23.48;60.42
6096;BME280;25081;42.698;23.298;2022-07-29T05:07:48;95381.84;;;23.46;61.11
6096;BME280;25081;42.698;23.298;2022-07-29T05:09:59;95381.31;;;24.39;57.78
6096;BME280;25081;42.698;23.298;2022-07-29T05:12:10;95378.70;;;24.17;59.11
6096;BME280;25081;42.698;23.298;2022-07-29T05:14:21;95377.11;;;24.00;58.80
6096;BME280;25081;42.698;23.298;2022-07-29T05:16:31;95385.86;;;24.71;57.29
6096;BME280;25081;42.698;23.298;2022-07-29T05:18:42;95378.13;;;25.00;55.57
6096;BME280;25081;42.698;23.298;2022-07-29T05:20:53;95379.12;;;24.24;57.61
6096;BME280;25081;42.698;23.298;2022-07-29T05:23:04;95386.91;;;23.17;60.04
6096;BME280;25081;42.698;23.298;2022-07-29T05:25:14;95385.95;;;23.27;60.47
6096;BME280;25081;42.698;23.298;2022-07-29T05:27:25;95390.17;;;24.01;58.19
6096;BME280;25081;42.698;23.298;2022-07-29T05:29:36;95384.89;;;24.50;56.73
6096;BME280;25081;42.698;23.298;2022-07-29T05:31:47;95374.73;;;25.42;53.24
6096;BME280;25081;42.698;23.298;2022-07-29T05:33:58;95378.05;;;24.78;53.89
6096;BME280;25081;42.698;23.298;2022-07-29T05:36:08;95380.86;;;26.04;50.58
6096;BME280;25081;42.698;23.298;2022-07-29T05:38:19;95372.69;;;26.83;48.59
6096;BME280;25081;42.698;23.298;2022-07-29T05:40:30;95378.66;;;27.65;46.34
6096;BME280;25081;42.698;23.298;2022-07-29T05:42:40;95378.06;;;27.92;44.88
6096;BME280;25081;42.698;23.298;2022-07-29T05:47:01;95384.20;;;25.81;49.82
6096;BME280;25081;42.698;23.298;2022-07-29T05:49:12;95386.16;;;26.00;48.70
6096;BME280;25081;42.698;23.298;2022-07-29T05:51:23;95380.75;;;26.97;47.28
6096;BME280;25081;42.698;23.298;2022-07-29T05:53:33;95391.22;;;27.75;45.95
6096;BME280;25081;42.698;23.298;2022-07-29T05:55:44;95387.35;;;28.08;45.34
6096;BME280;25081;42.698;23.298;2022-07-29T05:57:55;95384.40;;;28.92;43.21
6096;BME280;25081;42.698;23.298;2022-07-29T06:00:07;95382.36;;;29.31;41.60
6096;BME280;25081;42.698;23.298;2022-07-29T06:02:18;95387.27;;;29.94;40.37
6096;BME280;25081;42.698;23.298;2022-07-29T06:04:29;95387.17;;;29.13;41.74
6096;BME280;25081;42.698;23.298;2022-07-29T06:06:39;95388.66;;;29.31;41.42
6096;BME280;25081;42.698;23.298;2022-07-29T06:08:50;95387.27;;;29.46;41.29
6096;BME280;25081;42.698;23.298;2022-07-29T06:11:00;95389.99;;;30.15;40.06
6096;BME280;25081;42.698;23.298;2022-07-29T06:13:11;95380.70;;;30.89;38.39
6096;BME280;25081;42.698;23.298;2022-07-29T06:15:22;95379.06;;;30.88;38.40
6096;BME280;25081;42.698;23.298;2022-07-29T06:17:32;95391.30;;;30.48;38.85
6096;BME280;25081;42.698;23.298;2022-07-29T06:19:43;95388.53;;;29.97;39.53
6096;BME280;25081;42.698;23.298;2022-07-29T06:21:54;95393.95;;;28.86;41.73
6096;BME280;25081;42.698;23.298;2022-07-29T06:24:06;95389.59;;;28.70;41.97
6096;BME280;25081;42.698;23.298;2022-07-29T06:26:16;95392.73;;;29.88;39.76
6096;BME280;25081;42.698;23.298;2022-07-29T06:28:27;95391.45;;;27.24;45.20
6096;BME280;25081;42.698;23.298;2022-07-29T06:30:38;95387.92;;;28.08;43.92
6096;BME280;25081;42.698;23.298;2022-07-29T06:32:49;95386.87;;;29.35;41.87
6096;BME280;25081;42.698;23.298;2022-07-29T06:34:59;95393.05;;;28.88;41.42
6096;BME280;25081;42.698;23.298;2022-07-29T06:37:10;95387.64;;;28.33;43.36
6096;BME280;25081;42.698;23.298;2022-07-29T06:39:20;95382.86;;;30.08;39.63
6096;BME280;25081;42.698;23.298;2022-07-29T06:41:31;95384.66;;;30.55;39.52
6096;BME280;25081;42.698;23.298;2022-07-29T06:43:43;95384.97;;;29.06;41.21
6096;BME280;25081;42.698;23.298;2022-07-29T06:45:53;95379.59;;;29.46;40.69
6096;BME280;25081;42.698;23.298;2022-07-29T06:48:04;95381.76;;;27.87;42.80
6096;BME280;25081;42.698;23.298;2022-07-29T06:50:15;95378.67;;;26.65;46.33
6096;BME280;25081;42.698;23.298;2022-07-29T06:52:26;95383.14;;;27.79;43.95
6096;BME280;25081;42.698;23.298;2022-07-29T06:54:37;95381.28;;;27.85;44.36
6096;BME280;25081;42.698;23.298;2022-07-29T06:56:48;95378.83;;;29.51;40.60
6096;BME280;25081;42.698;23.298;2022-07-29T06:58:58;95382.66;;;28.49;42.79
6096;BME280;25081;42.698;23.298;2022-07-29T07:01:09;95379.31;;;28.03;43.53
6096;BME280;25081;42.698;23.298;2022-07-29T07:05:38;95369.78;;;27.69;44.21
6096;BME280;25081;42.698;23.298;2022-07-29T07:07:49;95369.58;;;29.35;40.12
6096;BME280;25081;42.698;23.298;2022-07-29T07:09:59;95368.48;;;30.47;38.26
6096;BME280;25081;42.698;23.298;2022-07-29T07:12:10;95367.68;;;30.47;37.48
6096;BME280;25081;42.698;23.298;2022-07-29T07:14:20;95363.45;;;30.62;37.52
6096;BME280;25081;42.698;23.298;2022-07-29T07:16:31;95373.81;;;28.12;42.50
6096;BME280;25081;42.698;23.298;2022-07-29T07:18:42;95370.28;;;27.71;43.00
6096;BME280;25081;42.698;23.298;2022-07-29T07:20:52;95377.27;;;27.14;44.18
6096;BME280;25081;42.698;23.298;2022-07-29T07:23:03;95380.48;;;27.16;44.34
6096;BME280;25081;42.698;23.298;2022-07-29T07:25:14;95374.03;;;28.21;42.70
6096;BME280;25081;42.698;23.298;2022-07-29T07:27:25;95372.69;;;26.83;45.51
6096;BME280;25081;42.698;23.298;2022-07-29T07:29:35;95364.46;;;27.81;43.61
6096;BME280;25081;42.698;23.298;2022-07-29T07:31:46;95366.85;;;29.20;41.34
6096;BME280;25081;42.698;23.298;2022-07-29T07:33:57;95370.83;;;27.44;44.16
6096;BME280;25081;42.698;23.298;2022-07-29T07:36:08;95364.37;;;27.57;44.64
6096;BME280;25081;42.698;23.298;2022-07-29T07:38:18;95369.08;;;28.53;41.63
6096;BME280;25081;42.698;23.298;2022-07-29T07:40:29;95361.89;;;28.55;41.44
6096;BME280;25081;42.698;23.298;2022-07-29T07:42:40;95355.24;;;29.77;38.76
6096;BME280;25081;42.698;23.298;2022-07-29T07:44:50;95357.59;;;30.00;38.30
6096;BME280;25081;42.698;23.298;2022-07-29T07:47:01;95361.06;;;30.03;38.58
6096;BME280;25081;42.698;23.298;2022-07-29T07:49:12;95358.52;;;30.43;37.15
6096;BME280;25081;42.698;23.298;2022-07-29T07:51:22;95362.49;;;29.88;38.11
6096;BME280;25081;42.698;23.298;2022-07-29T07:53:33;95359.87;;;29.58;38.95
6096;BME280;25081;42.698;23.298;2022-07-29T07:55:43;95369.20;;;28.18;41.61
6096;BME280;25081;42.698;23.298;2022-07-29T07:57:54;95368.78;;;28.31;41.54
6096;BME280;25081;42.698;23.298;2022-07-29T08:00:07;95362.66;;;30.04;37.89
6096;BME280;25081;42.698;23.298;2022-07-29T08:02:17;95353.86;;;31.85;34.64
6096;BME280;25081;42.698;23.298;2022-07-29T08:04:28;95369.89;;;28.83;40.02
6096;BME280;25081;42.698;23.298;2022-07-29T08:06:39;95363.62;;;28.30;41.63
6096;BME280;25081;42.698;23.298;2022-07-29T08:08:50;95356.77;;;28.21;41.91
6096;BME280;25081;42.698;23.298;2022-07-29T08:11:00;95356.77;;;28.30;41.59
6096;BME280;25081;42.698;23.298;2022-07-29T08:13:11;95352.21;;;29.22;40.19
6096;BME280;25081;42.698;23.298;2022-07-29T08:15:22;95347.61;;;29.56;39.38
6096;BME280;25081;42.698;23.298;2022-07-29T08:17:32;95349.59;;;31.87;35.15
6096;BME280;25081;42.698;23.298;2022-07-29T08:19:43;95349.22;;;31.27;35.30
6096;BME280;25081;42.698;23.298;2022-07-29T08:21:54;95357.02;;;29.04;39.77
6096;BME280;25081;42.698;23.298;2022-07-29T08:24:06;95351.41;;;30.42;37.14
6096;BME280;25081;42.698;23.298;2022-07-29T08:26:34;95344.89;;;32.26;34.54
6096;BME280;25081;42.698;23.298;2022-07-29T08:28:45;95349.94;;;32.30;33.87
6096;BME280;25081;42.698;23.298;2022-07-29T08:30:56;95344.51;;;33.06;32.03
6096;BME280;25081;42.698;23.298;2022-07-29T08:33:07;95352.66;;;30.44;35.96
6096;BME280;25081;42.698;23.298;2022-07-29T08:35:17;95357.20;;;28.40;39.63
6096;BME280;25081;42.698;23.298;2022-07-29T08:37:28;95357.00;;;28.22;40.42
6096;BME280;25081;42.698;23.298;2022-07-29T08:39:39;95349.27;;;28.77;39.72
6096;BME280;25081;42.698;23.298;2022-07-29T08:41:50;95351.06;;;29.02;38.93
6096;BME280;25081;42.698;23.298;2022-07-29T08:44:01;95354.09;;;28.50;39.71
6096;BME280;25081;42.698;23.298;2022-07-29T08:46:11;95349.81;;;28.32;39.76
6096;BME280;25081;42.698;23.298;2022-07-29T08:48:22;95345.52;;;30.19;37.53
6096;BME280;25081;42.698;23.298;2022-07-29T08:50:33;95338.18;;;31.95;33.14
6096;BME280;25081;42.698;23.298;2022-07-29T08:52:43;95349.11;;;30.32;36.33
6096;BME280;25081;42.698;23.298;2022-07-29T08:54:54;95344.58;;;30.09;36.96
6096;BME280;25081;42.698;23.298;2022-07-29T08:57:05;95338.21;;;31.09;34.93
6096;BME280;25081;42.698;23.298;2022-07-29T08:59:15;95337.95;;;31.20;34.59
6096;BME280;25081;42.698;23.298;2022-07-29T09:01:27;95326.09;;;30.73;34.46
6096;BME280;25081;42.698;23.298;2022-07-29T09:03:37;95332.22;;;31.19;34.20
6096;BME280;25081;42.698;23.298;2022-07-29T09:05:47;95331.40;;;32.62;31.83
6096;BME280;25081;42.698;23.298;2022-07-29T09:07:58;95331.80;;;31.85;33.22
6096;BME280;25081;42.698;23.298;2022-07-29T09:10:10;95322.98;;;30.81;33.86
6096;BME280;25081;42.698;23.298;2022-07-29T09:14:39;95324.89;;;29.80;35.47
6096;BME280;25081;42.698;23.298;2022-07-29T09:16:51;95317.83;;;30.67;34.42
6096;BME280;25081;42.698;23.298;2022-07-29T09:19:01;95328.37;;;30.77;33.73
6096;BME280;25081;42.698;23.298;2022-07-29T09:21:13;95329.19;;;30.65;34.72
6096;BME280;25081;42.698;23.298;2022-07-29T09:23:40;95320.81;;;32.32;31.74
6096;BME280;25081;42.698;23.298;2022-07-29T09:25:51;95309.62;;;33.27;30.34
6096;BME280;25081;42.698;23.298;2022-07-29T09:28:07;95322.09;;;32.60;30.73
6096;BME280;25081;42.698;23.298;2022-07-29T09:30:18;95332.17;;;32.84;30.70
6096;BME280;25081;42.698;23.298;2022-07-29T09:32:28;95320.91;;;31.42;32.30
6096;BME280;25081;42.698;23.298;2022-07-29T09:34:39;95314.09;;;32.02;31.17
6096;BME280;25081;42.698;23.298;2022-07-29T09:36:51;95328.31;;;31.60;31.88
6096;BME280;25081;42.698;23.298;2022-07-29T09:39:01;95322.07;;;30.01;34.27
6096;BME280;25081;42.698;23.298;2022-07-29T09:41:11;95320.21;;;30.56;33.87
6096;BME280;25081;42.698;23.298;2022-07-29T09:43:22;95310.38;;;32.10;30.96
6096;BME280;25081;42.698;23.298;2022-07-29T09:45:33;95310.05;;;33.29;28.57
6096;BME280;25081;42.698;23.298;2022-07-29T09:47:44;95314.73;;;33.35;28.77
6096;BME280;25081;42.698;23.298;2022-07-29T09:49:56;95310.91;;;31.72;31.04
6096;BME280;25081;42.698;23.298;2022-07-29T09:52:08;95305.81;;;31.24;32.34
6096;BME280;25081;42.698;23.298;2022-07-29T09:54:24;95295.38;;;31.51;32.19
6096;BME280;25081;42.698;23.298;2022-07-29T09:56:41;95300.42;;;32.78;30.01
6096;BME280;25081;42.698;23.298;2022-07-29T09:59:01;95301.09;;;33.42;29.52
6096;BME280;25081;42.698;23.298;2022-07-29T10:01:12;95296.72;;;32.07;31.15
6096;BME280;25081;42.698;23.298;2022-07-29T10:03:22;95296.38;;;32.25;30.93
6096;BME280;25081;42.698;23.298;2022-07-29T10:05:33;95295.07;;;31.00;33.30
6096;BME280;25081;42.698;23.298;2022-07-29T10:07:47;95287.24;;;29.99;35.02
6096;BME280;25081;42.698;23.298;2022-07-29T10:09:58;95291.75;;;29.37;36.05
6096;BME280;25081;42.698;23.298;2022-07-29T10:12:10;95283.39;;;30.30;34.74
6096;BME280;25081;42.698;23.298;2022-07-29T10:14:20;95277.39;;;31.63;32.26
6096;BME280;25081;42.698;23.298;2022-07-29T10:16:31;95274.36;;;32.60;31.24
6096;BME280;25081;42.698;23.298;2022-07-29T10:18:43;95269.34;;;31.65;31.35
6096;BME280;25081;42.698;23.298;2022-07-29T10:20:54;95266.28;;;31.60;31.75
6096;BME280;25081;42.698;23.298;2022-07-29T10:23:05;95263.97;;;31.62;31.91
6096;BME280;25081;42.698;23.298;2022-07-29T10:25:15;95267.15;;;31.92;31.58
6096;BME280;25081;42.698;23.298;2022-07-29T10:27:26;95262.39;;;31.55;32.21
6096;BME280;25081;42.698;23.298;2022-07-29T10:29:36;95261.46;;;33.09;29.76
6096;BME280;25081;42.698;23.298;2022-07-29T10:31:49;95256.61;;;32.19;31.09
6096;BME280;25081;42.698;23.298;2022-07-29T10:34:02;95249.67;;;32.41;30.79
6096;BME280;25081;42.698;23.298;2022-07-29T10:36:21;95258.56;;;32.51;30.82
6096;BME280;25081;42.698;23.298;2022-07-29T10:38:55;95254.19;;;33.20;29.50
6096;BME280;25081;42.698;23.298;2022-07-29T10:41:13;95250.09;;;33.81;28.36
6096;BME280;25081;42.698;23.298;2022-07-29T10:43:38;95246.48;;;31.64;32.14
6096;BME280;25081;42.698;23.298;2022-07-29T10:45:48;95244.54;;;31.43;32.71
6096;BME280;25081;42.698;23.298;2022-07-29T10:48:05;95242.98;;;32.42;30.87
6096;BME280;25081;42.698;23.298;2022-07-29T10:50:16;95242.27;;;31.39;31.83
6096;BME280;25081;42.698;23.298;2022-07-29T10:52:44;95244.91;;;31.35;31.97
6096;BME280;25081;42.698;23.298;2022-07-29T10:54:55;95241.44;;;31.88;31.34
6096;BME280;25081;42.698;23.298;2022-07-29T10:57:16;95228.23;;;32.35;29.31
6096;BME280;25081;42.698;23.298;2022-07-29T10:59:27;95219.65;;;32.14;29.54
6096;BME280;25081;42.698;23.298;2022-07-29T11:01:38;95215.36;;;32.17;29.51
6096;BME280;25081;42.698;23.298;2022-07-29T11:03:49;95219.69;;;32.50;29.15
6096;BME280;25081;42.698;23.298;2022-07-29T11:05:59;95220.81;;;32.23;29.62
6096;BME280;25081;42.698;23.298;2022-07-29T11:08:21;95220.38;;;31.30;31.25
6096;BME280;25081;42.698;23.298;2022-07-29T11:10:31;95222.66;;;31.00;32.20
6096;BME280;25081;42.698;23.298;2022-07-29T11:12:48;95217.09;;;31.46;31.72
6096;BME280;25081;42.698;23.298;2022-07-29T11:14:58;95208.11;;;30.87;31.89
6096;BME280;25081;42.698;23.298;2022-07-29T11:17:09;95210.87;;;31.65;31.08
6096;BME280;25081;42.698;23.298;2022-07-29T11:19:23;95208.84;;;31.06;32.69
6096;BME280;25081;42.698;23.298;2022-07-29T11:21:40;95206.27;;;30.91;32.97
6096;BME280;25081;42.698;23.298;2022-07-29T11:23:50;95206.99;;;30.82;32.93
6096;BME280;25081;42.698;23.298;2022-07-29T11:26:20;95202.77;;;31.34;31.65
6096;BME280;25081;42.698;23.298;2022-07-29T11:28:33;95206.95;;;31.50;31.46
6096;BME280;25081;42.698;23.298;2022-07-29T11:30:50;95194.79;;;31.17;31.97
6096;BME280;25081;42.698;23.298;2022-07-29T11:33:00;95200.98;;;30.34;33.34
6096;BME280;25081;42.698;23.298;2022-07-29T11:35:18;95199.54;;;30.76;32.27
6096;BME280;25081;42.698;23.298;2022-07-29T11:37:29;95194.91;;;30.34;33.18
6096;BME280;25081;42.698;23.298;2022-07-29T11:39:40;95200.78;;;30.85;32.44
6096;BME280;25081;42.698;23.298;2022-07-29T11:41:50;95204.38;;;30.73;32.86
6096;BME280;25081;42.698;23.298;2022-07-29T11:44:01;95194.17;;;30.68;32.72
6096;BME280;25081;42.698;23.298;2022-07-29T11:46:11;95195.81;;;30.44;33.25
6096;BME280;25081;42.698;23.298;2022-07-29T11:48:22;95185.27;;;31.27;31.70
6096;BME280;25081;42.698;23.298;2022-07-29T11:50:34;95182.44;;;31.93;31.25